Time;durP1;ratioP1;P1;durP2;ratioP2;P2;SDS_P1;SDS_P2;PMS_P1;PMS_P2;Temp;Humidity;BMP_temperature;BMP_pressure;BME280_temperature;BME280_humidity;BME280_pressure;Samples;Min_cycle;Max_cycle;Signal;HPM_P1;HPM_P2
2024/01/05 00:02:11;;;;;;;19.57;18.77;;;7.60;99.90;;;;;;5039120;28;20819;-73
2024/01/05 00:04:38;;;;;;;20.20;19.40;;;7.60;99.90;;;;;;5042223;28;20870;-72
2024/01/05 00:07:09;;;;;;;20.90;20.00;;;7.60;99.90;;;;;;5039153;28;20565;-72
2024/01/05 00:09:36;;;;;;;20.00;19.20;;;7.60;99.90;;;;;;5044246;28;20484;-72
2024/01/05 00:12:04;;;;;;;20.23;19.43;;;7.60;99.90;;;;;;5041553;28;20552;-72
2024/01/05 00:14:31;;;;;;;20.80;19.90;;;7.50;99.90;;;;;;5046029;28;20460;-72
2024/01/05 00:16:59;;;;;;;21.20;20.30;;;7.40;99.90;;;;;;5039432;28;20461;-72
2024/01/05 00:19:26;;;;;;;21.07;20.17;;;7.40;99.90;;;;;;5038808;28;20699;-72
2024/01/05 00:21:53;;;;;;;21.40;20.50;;;7.30;99.90;;;;;;5037803;28;20986;-72
2024/01/05 00:24:20;;;;;;;20.47;19.67;;;7.30;99.90;;;;;;5046180;28;21159;-72
2024/01/05 00:26:47;;;;;;;20.37;19.57;;;7.30;99.90;;;;;;5043458;28;20480;-72
2024/01/05 00:29:14;;;;;;;20.37;19.57;;;7.20;99.90;;;;;;5041531;28;20480;-72
2024/01/05 00:31:41;;;;;;;19.87;19.07;;;7.20;99.90;;;;;;5044092;28;20460;-72
2024/01/05 00:34:10;;;;;;;20.20;19.40;;;7.20;99.90;;;;;;5036953;28;20553;-72
2024/01/05 00:36:37;;;;;;;21.00;20.10;;;7.10;99.90;;;;;;5037824;28;20487;-72
2024/01/05 00:39:04;;;;;;;20.60;19.80;;;7.10;99.90;;;;;;5041791;28;20959;-72
2024/01/05 00:41:31;;;;;;;20.37;19.57;;;7.10;99.90;;;;;;5045669;28;20835;-72
2024/01/05 00:43:58;;;;;;;20.37;19.57;;;7.00;99.90;;;;;;5040364;28;20475;-72
2024/01/05 00:46:25;;;;;;;21.37;20.47;;;7.00;99.90;;;;;;5031196;28;20472;-72
2024/01/05 00:48:52;;;;;;;21.03;20.17;;;7.00;99.90;;;;;;5033069;28;20471;-72
2024/01/05 00:51:20;;;;;;;21.40;20.50;;;6.90;99.90;;;;;;5041487;28;20461;-72
2024/01/05 00:53:47;;;;;;;20.87;20.07;;;6.90;99.90;;;;;;5041953;28;20464;-72
2024/01/05 00:56:15;;;;;;;21.03;20.13;;;6.90;99.90;;;;;;5039211;28;20468;-72
2024/01/05 00:58:43;;;;;;;21.40;20.50;;;6.90;99.90;;;;;;5032891;28;20933;-72
2024/01/05 01:01:10;;;;;;;21.67;20.77;;;6.80;99.90;;;;;;5043695;28;20456;-72
2024/01/05 01:03:37;;;;;;;21.60;20.70;;;6.80;99.90;;;;;;5035987;28;20464;-72
2024/01/05 01:06:05;;;;;;;21.60;20.70;;;6.70;99.90;;;;;;5038807;28;20567;-72
2024/01/05 01:08:33;;;;;;;21.30;20.40;;;6.70;99.90;;;;;;5043306;28;20877;-72
2024/01/05 01:11:01;;;;;;;21.20;20.30;;;6.70;99.90;;;;;;5040150;28;20538;-72
2024/01/05 01:13:28;;;;;;;21.90;21.00;;;6.60;99.90;;;;;;5045089;28;20509;-72
2024/01/05 01:15:55;;;;;;;22.20;21.20;;;6.60;99.90;;;;;;5037973;28;21028;-72
2024/01/05 01:18:22;;;;;;;21.13;20.23;;;6.60;99.90;;;;;;5032177;28;20887;-72
2024/01/05 01:20:49;;;;;;;21.77;20.87;;;6.50;99.90;;;;;;5039312;28;20459;-72
2024/01/05 01:23:16;;;;;;;21.80;20.90;;;6.50;99.90;;;;;;5045813;28;20539;-72
2024/01/05 01:25:44;;;;;;;21.73;20.83;;;6.50;99.90;;;;;;5041973;28;20457;-72
2024/01/05 01:28:11;;;;;;;21.70;20.80;;;6.50;99.90;;;;;;5045499;28;20776;-72
2024/01/05 01:30:39;;;;;;;21.20;20.30;;;6.50;99.90;;;;;;5044566;28;20507;-72
2024/01/05 01:33:06;;;;;;;21.27;20.37;;;6.60;99.90;;;;;;5033477;28;20464;-72
2024/01/05 01:35:33;;;;;;;21.30;20.40;;;6.70;99.90;;;;;;5041010;28;20555;-72
2024/01/05 01:38:00;;;;;;;21.30;20.40;;;6.70;99.90;;;;;;5045853;28;20931;-72
2024/01/05 01:40:27;;;;;;;20.80;20.00;;;6.80;99.90;;;;;;5045004;28;20480;-72
2024/01/05 01:42:56;;;;;;;22.00;21.10;;;6.70;99.90;;;;;;5039966;28;20464;-71
2024/01/05 01:45:23;;;;;;;21.50;20.60;;;6.70;99.90;;;;;;5036533;28;20456;-72
2024/01/05 01:47:51;;;;;;;22.00;21.10;;;6.70;99.90;;;;;;5034136;28;20698;-71
2024/01/05 01:50:19;;;;;;;21.07;20.23;;;6.70;99.90;;;;;;5035162;28;21178;-71
2024/01/05 01:52:48;;;;;;;21.90;21.00;;;6.80;99.90;;;;;;5036250;28;20496;-71
2024/01/05 01:55:16;;;;;;;22.30;21.40;;;6.80;99.90;;;;;;5038473;28;20539;-71
2024/01/05 01:57:44;;;;;;;21.17;20.27;;;6.80;99.90;;;;;;5040878;28;20857;-71
2024/01/05 02:00:15;;;;;;;22.17;21.27;;;6.70;99.90;;;;;;5045071;28;20453;-71
2024/01/05 02:02:43;;;;;;;21.70;20.80;;;6.80;99.90;;;;;;5035080;28;20465;-71
2024/01/05 02:05:10;;;;;;;21.90;21.00;;;6.80;99.90;;;;;;5034437;28;20461;-71
2024/01/05 02:07:38;;;;;;;22.90;21.90;;;6.80;99.90;;;;;;5037798;28;20947;-71
2024/01/05 02:10:05;;;;;;;21.90;21.00;;;6.80;99.90;;;;;;5037802;28;20558;-71
2024/01/05 02:12:32;;;;;;;21.60;20.70;;;6.70;99.90;;;;;;5037777;28;21521;-71
2024/01/05 02:14:59;;;;;;;21.97;21.07;;;6.70;99.90;;;;;;5039455;28;20460;-71
2024/01/05 02:17:32;;;;;;;21.53;20.63;;;6.70;99.90;;;;;;5036868;28;21482;-71
2024/01/05 02:20:00;;;;;;;22.17;21.27;;;6.70;99.90;;;;;;5042556;28;20457;-72
2024/01/05 02:22:29;;;;;;;21.93;21.03;;;6.70;99.90;;;;;;5043488;28;20946;-72
2024/01/05 02:24:59;;;;;;;21.77;20.87;;;6.70;99.90;;;;;;5048153;28;20488;-71
2024/01/05 02:27:26;;;;;;;22.90;22.00;;;6.60;99.90;;;;;;5042351;28;20490;-71
2024/01/05 02:29:53;;;;;;;21.73;20.83;;;6.60;99.90;;;;;;5048274;28;20874;-71
2024/01/05 02:32:21;;;;;;;21.80;20.90;;;6.50;99.90;;;;;;5036001;28;20471;-71
2024/01/05 02:34:48;;;;;;;22.00;21.10;;;6.50;99.90;;;;;;5042585;28;20464;-71
2024/01/05 02:37:16;;;;;;;22.60;21.70;;;6.50;99.90;;;;;;5037240;28;20798;-71
2024/01/05 02:39:43;;;;;;;22.50;21.60;;;6.50;99.90;;;;;;5043324;28;20573;-71
2024/01/05 02:42:12;;;;;;;20.90;20.00;;;6.50;99.90;;;;;;5039838;28;20452;-71
2024/01/05 02:44:38;;;;;;;22.23;21.33;;;6.40;99.90;;;;;;5043497;28;20475;-71
2024/01/05 02:47:05;;;;;;;22.87;21.93;;;6.50;99.90;;;;;;5037024;28;20470;-71
2024/01/05 02:49:32;;;;;;;23.10;22.10;;;6.40;99.90;;;;;;5042004;28;20489;-71
2024/01/05 02:52:00;;;;;;;23.00;22.00;;;6.40;99.90;;;;;;5048378;28;20477;-71
2024/01/05 02:54:26;;;;;;;22.60;21.60;;;6.30;99.90;;;;;;5042353;28;20475;-71
2024/01/05 02:56:53;;;;;;;21.40;20.50;;;6.30;99.90;;;;;;5038427;28;20984;-71
2024/01/05 02:59:22;;;;;;;22.10;21.20;;;6.40;99.90;;;;;;5046075;28;20839;-71
2024/01/05 03:01:50;;;;;;;21.03;20.13;;;6.40;99.90;;;;;;5047487;28;20514;-71
2024/01/05 03:04:17;;;;;;;22.53;21.60;;;6.40;99.90;;;;;;5047886;28;20482;-71
2024/01/05 03:06:44;;;;;;;22.27;21.37;;;6.40;99.90;;;;;;5035459;28;20476;-71
2024/01/05 03:09:11;;;;;;;22.40;21.50;;;6.30;99.90;;;;;;5038004;28;20491;-71
2024/01/05 03:11:38;;;;;;;22.20;21.30;;;6.30;99.90;;;;;;5043492;28;20461;-71
2024/01/05 03:14:05;;;;;;;22.60;21.70;;;6.20;99.90;;;;;;5045488;28;20491;-71
2024/01/05 03:16:34;;;;;;;22.40;21.40;;;6.20;99.90;;;;;;5046923;28;20459;-71
2024/01/05 03:19:01;;;;;;;23.00;22.00;;;6.10;99.90;;;;;;5047478;28;20457;-71
2024/01/05 03:21:28;;;;;;;23.30;22.30;;;6.10;99.90;;;;;;5039670;28;20488;-71
2024/01/05 03:23:55;;;;;;;22.40;21.50;;;6.00;99.90;;;;;;5036194;28;20463;-72
2024/01/05 03:26:22;;;;;;;22.30;21.40;;;6.00;99.90;;;;;;5044012;28;20776;-72
2024/01/05 03:28:49;;;;;;;21.57;20.67;;;6.10;99.90;;;;;;5046602;28;20496;-71
2024/01/05 03:31:16;;;;;;;21.40;20.50;;;6.20;99.90;;;;;;5039017;28;20467;-71
2024/01/05 03:33:45;;;;;;;21.80;20.90;;;6.20;99.90;;;;;;5033756;28;21265;-72
2024/01/05 03:36:13;;;;;;;21.70;20.80;;;6.20;99.90;;;;;;5039167;28;20471;-71
2024/01/05 03:38:41;;;;;;;21.23;20.33;;;6.40;99.90;;;;;;5044498;28;20517;-71
2024/01/05 03:41:08;;;;;;;20.97;20.07;;;6.40;99.90;;;;;;5046950;28;20517;-71
2024/01/05 03:43:34;;;;;;;22.60;21.60;;;6.40;99.90;;;;;;5045857;28;20452;-72
2024/01/05 03:46:01;;;;;;;22.40;21.50;;;6.40;99.90;;;;;;5040413;28;20458;-72
2024/01/05 03:48:28;;;;;;;22.00;21.10;;;6.50;99.90;;;;;;5041582;28;21032;-72
2024/01/05 03:50:56;;;;;;;22.43;21.53;;;6.60;99.90;;;;;;5038494;28;20814;-71
2024/01/05 03:53:23;;;;;;;22.13;21.20;;;6.60;99.90;;;;;;5046697;28;20464;-72
2024/01/05 03:55:50;;;;;;;22.67;21.67;;;6.80;99.90;;;;;;5046734;28;20460;-71
2024/01/05 03:58:17;;;;;;;22.60;21.60;;;6.80;99.90;;;;;;5043847;28;20469;-71
2024/01/05 04:00:44;;;;;;;22.87;21.87;;;6.90;99.90;;;;;;5034116;28;20464;-71
2024/01/05 04:03:12;;;;;;;23.40;22.40;;;6.90;99.90;;;;;;5042731;28;20781;-72
2024/01/05 04:05:39;;;;;;;22.93;21.93;;;6.90;99.90;;;;;;5045301;28;20460;-72
2024/01/05 04:08:08;;;;;;;22.77;21.77;;;7.00;99.90;;;;;;5038815;28;20472;-72
2024/01/05 04:10:35;;;;;;;22.87;21.87;;;7.10;99.90;;;;;;5046544;28;20829;-72
2024/01/05 04:13:03;;;;;;;22.30;21.30;;;7.10;99.90;;;;;;5036436;28;20517;-71
2024/01/05 04:15:30;;;;;;;23.10;22.10;;;7.10;99.90;;;;;;5040962;28;20486;-72
2024/01/05 04:17:57;;;;;;;23.10;22.10;;;7.10;99.90;;;;;;5045340;28;20460;-72
2024/01/05 04:20:25;;;;;;;23.33;22.33;;;7.10;99.90;;;;;;5046107;28;20452;-71
2024/01/05 04:22:53;;;;;;;23.07;22.07;;;7.20;99.90;;;;;;5041325;28;20468;-71
2024/01/05 04:25:21;;;;;;;23.30;22.30;;;7.20;99.90;;;;;;5044276;28;20513;-72
2024/01/05 04:27:48;;;;;;;22.70;21.60;;;7.20;99.90;;;;;;5036342;28;20796;-71
2024/01/05 04:30:15;;;;;;;22.67;21.57;;;7.20;99.90;;;;;;5041566;28;20496;-71
2024/01/05 04:32:42;;;;;;;24.13;23.03;;;7.20;99.90;;;;;;5036024;28;20794;-72
2024/01/05 04:35:10;;;;;;;22.97;21.97;;;7.10;99.90;;;;;;5037049;28;20500;-72
2024/01/05 04:37:36;;;;;;;24.10;23.00;;;7.10;99.90;;;;;;5046395;28;21022;-72
2024/01/05 04:40:05;;;;;;;23.30;22.30;;;7.00;99.90;;;;;;5035700;28;20880;-72
2024/01/05 04:42:34;;;;;;;24.37;23.27;;;6.90;99.90;;;;;;5037535;28;20638;-71
2024/01/05 04:45:01;;;;;;;24.20;23.10;;;6.90;99.90;;;;;;5040525;28;20463;-71
2024/01/05 04:47:28;;;;;;;23.13;22.13;;;6.90;99.90;;;;;;5044675;28;20452;-71
2024/01/05 04:49:55;;;;;;;22.30;21.30;;;6.90;99.90;;;;;;5040997;28;20583;-71
2024/01/05 04:52:22;;;;;;;22.70;21.70;;;6.90;99.90;;;;;;5043466;28;20464;-71
2024/01/05 04:54:49;;;;;;;22.13;21.23;;;7.00;99.90;;;;;;5036892;28;20456;-71
2024/01/05 04:57:15;;;;;;;22.50;21.50;;;7.00;99.90;;;;;;5038688;28;20474;-71
2024/01/05 04:59:43;;;;;;;22.50;21.50;;;7.00;99.90;;;;;;5038580;28;20464;-71
2024/01/05 05:02:11;;;;;;;22.00;21.00;;;6.90;99.90;;;;;;5042022;28;20456;-71
2024/01/05 05:04:38;;;;;;;22.77;21.70;;;6.90;99.90;;;;;;5045849;28;20484;-71
2024/01/05 05:07:05;;;;;;;22.50;21.50;;;6.90;99.90;;;;;;5036265;28;20473;-71
2024/01/05 05:09:32;;;;;;;22.17;21.17;;;6.80;99.90;;;;;;5040241;28;20982;-72
2024/01/05 05:11:59;;;;;;;21.97;20.97;;;6.90;99.90;;;;;;5039874;28;20467;-71
2024/01/05 05:14:26;;;;;;;22.90;21.80;;;6.90;99.90;;;;;;5039705;28;20811;-71
2024/01/05 05:16:55;;;;;;;22.00;21.00;;;6.80;99.90;;;;;;5038581;28;20456;-71
2024/01/05 05:19:22;;;;;;;22.60;21.50;;;6.80;99.90;;;;;;5045255;28;20463;-71
2024/01/05 05:21:49;;;;;;;22.23;21.17;;;6.80;99.90;;;;;;5038402;28;20465;-71
2024/01/05 05:24:16;;;;;;;22.33;21.23;;;6.80;99.90;;;;;;5039396;28;20472;-71
2024/01/05 05:26:43;;;;;;;22.57;21.47;;;6.80;99.90;;;;;;5036033;28;20834;-71
2024/01/05 05:29:10;;;;;;;22.63;21.53;;;6.80;99.90;;;;;;5046200;28;20950;-71
2024/01/05 05:31:36;;;;;;;22.50;21.40;;;6.80;99.90;;;;;;5038279;28;20780;-71
2024/01/05 05:34:05;;;;;;;21.77;20.77;;;6.80;99.90;;;;;;5045223;28;20491;-71
2024/01/05 05:36:33;;;;;;;22.23;21.13;;;6.70;99.90;;;;;;5036244;28;20708;-71
2024/01/05 05:39:00;;;;;;;22.33;21.23;;;6.70;99.90;;;;;;5044779;28;20997;-70
2024/01/05 05:41:27;;;;;;;22.50;21.40;;;6.60;99.90;;;;;;5037479;28;20499;-71
2024/01/05 05:43:55;;;;;;;22.30;21.20;;;6.60;99.90;;;;;;5044815;28;20452;-71
2024/01/05 05:46:22;;;;;;;22.37;21.27;;;6.60;99.90;;;;;;5045652;28;20459;-71
2024/01/05 05:48:49;;;;;;;22.53;21.43;;;6.60;99.90;;;;;;5039054;28;20559;-71
2024/01/05 05:51:17;;;;;;;21.87;20.77;;;6.50;99.90;;;;;;5032793;28;20871;-71
2024/01/05 05:53:44;;;;;;;21.33;20.33;;;6.60;99.90;;;;;;5040856;28;20477;-74
2024/01/05 05:56:11;;;;;;;21.77;20.67;;;6.60;99.90;;;;;;5033759;28;20465;-71
2024/01/05 05:58:38;;;;;;;22.17;21.07;;;6.60;99.90;;;;;;5045721;28;20463;-73
2024/01/05 06:01:06;;;;;;;22.30;21.20;;;6.60;99.90;;;;;;5047978;28;20470;-73
2024/01/05 06:03:33;;;;;;;21.37;20.30;;;6.60;99.90;;;;;;5037455;28;20471;-71
2024/01/05 06:06:00;;;;;;;21.27;20.17;;;6.60;99.90;;;;;;5040050;28;20797;-74
2024/01/05 06:08:28;;;;;;;21.30;20.20;;;6.70;99.90;;;;;;5045216;28;20491;-74
2024/01/05 06:10:55;;;;;;;21.60;20.50;;;6.70;99.90;;;;;;5043838;28;20456;-71
2024/01/05 06:13:21;;;;;;;20.60;19.60;;;6.70;99.90;;;;;;5039097;28;20461;-73
2024/01/05 06:15:48;;;;;;;20.87;19.77;;;6.80;99.90;;;;;;5048894;28;20448;-72
2024/01/05 06:18:15;;;;;;;21.03;19.93;;;6.80;99.90;;;;;;5043340;28;20895;-72
2024/01/05 06:20:42;;;;;;;20.80;19.70;;;6.80;99.90;;;;;;5037347;28;20457;-72
2024/01/05 06:23:09;;;;;;;20.50;19.50;;;6.90;99.90;;;;;;5042555;28;20463;-73
2024/01/05 06:25:37;;;;;;;20.20;19.20;;;6.90;99.90;;;;;;5043430;28;20460;-73
2024/01/05 06:28:04;;;;;;;20.50;19.50;;;7.00;99.90;;;;;;5034932;28;20457;-72
2024/01/05 06:30:31;;;;;;;20.20;19.10;;;7.10;99.90;;;;;;5046277;28;20479;-71
2024/01/05 06:32:58;;;;;;;19.90;18.90;;;7.20;99.90;;;;;;5044674;28;20456;-72
2024/01/05 06:35:24;;;;;;;18.80;17.90;;;7.30;99.90;;;;;;5038281;28;20468;-70
2024/01/05 06:37:51;;;;;;;19.40;18.40;;;7.30;99.90;;;;;;5048662;28;20458;-73
2024/01/05 06:40:18;;;;;;;18.43;17.53;;;7.40;99.90;;;;;;5039596;28;20505;-74
2024/01/05 06:42:46;;;;;;;17.53;16.73;;;7.50;99.90;;;;;;5045396;28;20456;-73
2024/01/05 06:45:12;;;;;;;16.60;15.90;;;7.60;99.90;;;;;;5038088;28;20465;-72
2024/01/05 06:47:41;;;;;;;16.00;15.30;;;7.70;99.90;;;;;;5038535;28;20484;-72
2024/01/05 06:50:08;;;;;;;15.37;14.77;;;7.70;99.90;;;;;;5042339;28;20529;-71
2024/01/05 06:52:35;;;;;;;14.60;14.10;;;7.70;99.90;;;;;;5048541;28;20475;-74
2024/01/05 06:55:03;;;;;;;14.10;13.60;;;7.80;99.90;;;;;;5041771;28;20466;-73
2024/01/05 06:57:31;;;;;;;13.57;13.07;;;7.80;99.90;;;;;;5039192;28;20462;-73
2024/01/05 06:59:59;;;;;;;13.37;12.97;;;7.80;99.90;;;;;;5046779;28;20965;-72
2024/01/05 07:02:28;;;;;;;12.50;12.10;;;7.80;99.90;;;;;;5047610;28;20479;-71
2024/01/05 07:04:55;;;;;;;11.80;11.50;;;7.70;99.90;;;;;;5040102;28;20479;-70
2024/01/05 07:07:22;;;;;;;12.33;11.93;;;7.70;99.90;;;;;;5040640;28;20460;-72
2024/01/05 07:09:48;;;;;;;11.70;11.40;;;7.60;99.90;;;;;;5043305;28;20801;-72
2024/01/05 07:12:15;;;;;;;11.60;11.30;;;7.60;99.90;;;;;;5041700;28;20495;-70
2024/01/05 07:14:42;;;;;;;11.90;11.60;;;7.60;99.90;;;;;;5033648;28;20467;-71
2024/01/05 07:17:11;;;;;;;11.70;11.40;;;7.60;99.90;;;;;;5042136;28;20476;-70
2024/01/05 07:19:39;;;;;;;12.00;11.70;;;7.60;99.90;;;;;;5035970;28;20465;-70
2024/01/05 07:22:07;;;;;;;11.90;11.60;;;7.70;99.90;;;;;;5031181;28;20947;-73
2024/01/05 07:24:36;;;;;;;11.70;11.40;;;7.70;99.90;;;;;;5031783;28;20964;-73
2024/01/05 07:27:03;;;;;;;12.10;11.70;;;7.60;99.90;;;;;;5037768;28;20467;-73
2024/01/05 07:29:29;;;;;;;11.97;11.67;;;7.70;99.90;;;;;;5034417;28;20490;-70
2024/01/05 07:31:57;;;;;;;12.90;12.50;;;7.80;99.90;;;;;;5030202;28;20464;-71
2024/01/05 07:34:25;;;;;;;12.50;12.10;;;7.80;99.90;;;;;;5029540;28;20475;-72
2024/01/05 07:36:52;;;;;;;12.77;12.37;;;8.00;99.90;;;;;;5032636;28;20830;-71
2024/01/05 07:39:19;;;;;;;12.63;12.23;;;8.00;99.90;;;;;;5035727;28;20468;-72
2024/01/05 07:41:47;;;;;;;12.33;11.93;;;8.10;99.90;;;;;;5034907;28;20957;-73
2024/01/05 07:44:14;;;;;;;12.53;12.13;;;8.10;99.90;;;;;;5032254;28;20472;-72
2024/01/05 07:46:42;;;;;;;12.50;12.10;;;8.20;99.90;;;;;;5030012;28;20821;-73
2024/01/05 07:49:09;;;;;;;12.33;11.97;;;8.20;99.90;;;;;;5032247;28;20492;-72
2024/01/05 07:51:38;;;;;;;12.70;12.30;;;8.20;99.90;;;;;;5029336;28;20535;-72
2024/01/05 07:54:04;;;;;;;13.10;12.70;;;8.20;99.90;;;;;;5033875;28;20802;-71
2024/01/05 07:56:38;;;;;;;12.60;12.20;;;8.30;99.90;;;;;;5033247;28;20495;-72
2024/01/05 07:59:05;;;;;;;12.67;12.27;;;8.20;99.90;;;;;;5031844;28;20492;-70
2024/01/05 08:01:32;;;;;;;13.07;12.67;;;8.30;99.90;;;;;;5023994;28;20796;-73
2024/01/05 08:04:00;;;;;;;13.30;12.90;;;8.30;99.90;;;;;;5032598;28;20465;-73
2024/01/05 08:06:27;;;;;;;13.20;12.80;;;8.40;99.90;;;;;;5033133;28;20472;-70
2024/01/05 08:08:55;;;;;;;13.40;13.00;;;8.40;99.90;;;;;;5033405;28;21109;-72
2024/01/05 08:11:22;;;;;;;13.33;12.93;;;8.40;99.90;;;;;;5032094;28;20563;-71
2024/01/05 08:13:49;;;;;;;13.57;13.17;;;8.40;99.90;;;;;;5029121;28;20492;-71
2024/01/05 08:16:15;;;;;;;13.97;13.47;;;8.40;99.90;;;;;;5027975;28;20461;-72
2024/01/05 08:18:42;;;;;;;14.10;13.60;;;8.50;99.90;;;;;;5033926;28;20971;-70
2024/01/05 08:21:09;;;;;;;13.73;13.33;;;8.50;99.90;;;;;;5033351;28;20461;-72
2024/01/05 08:23:37;;;;;;;13.53;13.13;;;8.50;99.90;;;;;;5029915;28;20472;-72
2024/01/05 08:26:06;;;;;;;13.90;13.40;;;8.60;99.90;;;;;;5032684;28;20496;-71
2024/01/05 08:28:33;;;;;;;14.10;13.60;;;8.50;99.90;;;;;;5029315;28;20880;-71
2024/01/05 08:31:00;;;;;;;13.43;13.03;;;8.40;99.90;;;;;;5035293;28;21467;-70
2024/01/05 08:33:27;;;;;;;13.90;13.40;;;8.40;99.90;;;;;;5031290;28;20453;-71
2024/01/05 08:35:54;;;;;;;13.50;13.10;;;8.50;99.90;;;;;;5031684;28;20468;-70
2024/01/05 08:38:21;;;;;;;13.43;13.03;;;8.40;99.90;;;;;;5036022;28;20456;-73
2024/01/05 08:40:50;;;;;;;13.40;13.00;;;8.40;99.90;;;;;;5029988;28;20476;-72
2024/01/05 08:43:19;;;;;;;13.53;13.13;;;8.40;99.90;;;;;;5029792;28;20473;-72
2024/01/05 08:45:46;;;;;;;13.90;13.40;;;8.40;99.90;;;;;;5033413;28;20518;-71
2024/01/05 08:48:14;;;;;;;13.80;13.30;;;8.40;99.90;;;;;;5033679;28;20931;-71
2024/01/05 08:50:41;;;;;;;13.53;13.13;;;8.40;99.90;;;;;;5033262;28;20476;-70
2024/01/05 08:53:08;;;;;;;13.97;13.47;;;8.40;99.90;;;;;;5034269;28;20461;-71
2024/01/05 08:55:36;;;;;;;14.10;13.60;;;8.40;99.90;;;;;;5033315;28;20477;-72
2024/01/05 08:58:04;;;;;;;14.00;13.50;;;8.40;99.90;;;;;;5028843;28;20962;-72
2024/01/05 09:00:33;;;;;;;14.20;13.70;;;8.50;99.90;;;;;;5032913;28;20573;-70
2024/01/05 09:02:59;;;;;;;14.00;13.50;;;8.50;99.90;;;;;;5031407;28;20470;-71
2024/01/05 09:05:26;;;;;;;14.30;13.80;;;8.50;99.90;;;;;;5033266;28;20472;-70
2024/01/05 09:07:54;;;;;;;13.90;13.40;;;8.50;99.90;;;;;;5034260;28;20472;-71
2024/01/05 09:10:20;;;;;;;13.60;13.20;;;8.50;99.90;;;;;;5027772;28;20572;-71
2024/01/05 09:12:47;;;;;;;14.10;13.60;;;8.50;99.90;;;;;;5029925;28;20483;-71
2024/01/05 09:15:15;;;;;;;14.10;13.60;;;8.50;99.90;;;;;;5031814;28;20652;-72
2024/01/05 09:17:44;;;;;;;14.20;13.70;;;8.50;99.90;;;;;;5032085;28;20939;-72
2024/01/05 09:20:13;;;;;;;13.63;13.20;;;8.40;99.90;;;;;;5029906;28;20473;-70
2024/01/05 09:22:39;;;;;;;13.97;13.47;;;8.50;99.90;;;;;;5032456;28;20638;-72
2024/01/05 09:25:07;;;;;;;14.07;13.57;;;8.50;99.90;;;;;;5031432;28;20463;-71
2024/01/05 09:27:34;;;;;;;14.50;14.00;;;8.50;99.90;;;;;;5033586;28;20841;-70
2024/01/05 09:30:03;;;;;;;14.30;13.80;;;8.60;99.90;;;;;;5034048;28;20491;-70
2024/01/05 09:32:29;;;;;;;13.80;13.30;;;8.50;99.90;;;;;;5032952;28;20560;-71
2024/01/05 09:34:58;;;;;;;14.30;13.80;;;8.50;99.90;;;;;;5036580;28;20468;-73
2024/01/05 09:37:25;;;;;;;14.13;13.63;;;8.50;99.90;;;;;;5032524;28;21063;-71
2024/01/05 09:39:53;;;;;;;14.03;13.53;;;8.50;99.90;;;;;;5036297;28;20875;-71
2024/01/05 09:42:20;;;;;;;14.30;13.80;;;8.50;99.90;;;;;;5036194;28;20469;-72
2024/01/05 09:44:51;;;;;;;14.50;14.00;;;8.60;99.90;;;;;;5037506;28;20471;-71
2024/01/05 09:47:19;;;;;;;14.17;13.67;;;8.70;99.90;;;;;;5032960;28;20464;-71
2024/01/05 09:49:49;;;;;;;14.00;13.50;;;8.70;99.90;;;;;;5035566;28;20860;-71
2024/01/05 09:52:20;;;;;;;13.83;13.33;;;8.70;99.90;;;;;;5037264;28;20469;-70
2024/01/05 09:54:47;;;;;;;13.90;13.40;;;8.70;99.90;;;;;;5035907;28;20495;-71
2024/01/05 09:57:17;;;;;;;13.30;12.90;;;8.60;99.90;;;;;;5034136;28;20909;-70
2024/01/05 09:59:47;;;;;;;14.03;13.53;;;8.60;99.90;;;;;;5035213;28;20452;-71
2024/01/05 10:02:19;;;;;;;14.23;13.73;;;8.70;99.90;;;;;;5029583;28;20612;-72
2024/01/05 10:04:46;;;;;;;14.00;13.50;;;8.70;99.90;;;;;;5037954;28;20460;-70
2024/01/05 10:07:15;;;;;;;14.63;14.13;;;8.70;99.90;;;;;;5034958;28;20492;-71
2024/01/05 10:09:53;;;;;;;14.30;13.80;;;8.70;99.90;;;;;;5036749;28;20499;-71
2024/01/05 10:12:20;;;;;;;13.67;13.27;;;8.70;99.90;;;;;;5029831;28;20476;-70
2024/01/05 10:14:48;;;;;;;14.13;13.63;;;8.70;99.90;;;;;;5029674;28;20779;-71
2024/01/05 10:17:15;;;;;;;14.00;13.50;;;8.70;99.90;;;;;;5037731;28;20487;-70
2024/01/05 10:19:43;;;;;;;13.60;13.20;;;8.60;99.90;;;;;;5036009;28;20514;-70
2024/01/05 10:22:11;;;;;;;13.97;13.47;;;8.60;99.90;;;;;;5034723;28;20579;-72
2024/01/05 10:24:38;;;;;;;14.53;14.03;;;8.70;99.90;;;;;;5032695;28;20653;-70
2024/01/05 10:27:09;;;;;;;14.17;13.67;;;8.60;99.90;;;;;;5037540;28;20460;-70
2024/01/05 10:29:37;;;;;;;14.40;13.90;;;8.70;99.90;;;;;;5028512;28;20492;-72
2024/01/05 10:32:12;;;;;;;14.03;13.53;;;8.60;99.90;;;;;;5037043;28;20486;-71
2024/01/05 10:34:40;;;;;;;14.13;13.63;;;8.60;99.90;;;;;;5034204;28;20487;-71
2024/01/05 10:37:08;;;;;;;14.60;14.10;;;8.50;99.90;;;;;;5036087;28;20460;-70
2024/01/05 10:39:35;;;;;;;14.57;14.07;;;8.60;99.90;;;;;;5038610;28;20467;-69
2024/01/05 10:42:22;;;;;;;14.40;13.90;;;8.70;99.90;;;;;;5030092;28;21077;-70
2024/01/05 10:44:51;;;;;;;14.10;13.60;;;8.80;99.90;;;;;;5032166;28;20460;-71
2024/01/05 10:47:19;;;;;;;14.47;13.97;;;8.90;99.90;;;;;;5033072;28;20461;-71
2024/01/05 10:49:50;;;;;;;13.63;13.23;;;9.00;99.90;;;;;;5034207;28;20460;-70
2024/01/05 10:52:18;;;;;;;14.43;13.93;;;9.00;99.90;;;;;;5031477;28;20844;-70
2024/01/05 10:54:47;;;;;;;14.67;14.17;;;9.00;99.90;;;;;;5033294;28;20467;-72
2024/01/05 10:57:14;;;;;;;14.10;13.60;;;8.90;99.90;;;;;;5032126;28;20614;-70
2024/01/05 10:59:45;;;;;;;14.60;14.10;;;9.00;99.90;;;;;;5034750;28;20460;-72
2024/01/05 11:02:19;;;;;;;14.33;13.83;;;9.00;99.90;;;;;;5034976;28;20465;-70
2024/01/05 11:04:52;;;;;;;15.00;14.50;;;9.00;99.90;;;;;;5032737;28;20586;-70
2024/01/05 11:07:19;;;;;;;14.13;13.63;;;8.90;99.90;;;;;;5034165;28;20476;-70
2024/01/05 11:09:57;;;;;;;14.40;13.90;;;9.00;99.90;;;;;;5034515;28;20457;-71
2024/01/05 11:12:39;;;;;;;14.27;13.77;;;9.10;99.90;;;;;;5035540;28;20560;-70
2024/01/05 11:15:26;;;;;;;14.30;13.80;;;9.30;99.90;;;;;;5031397;28;20473;-71
2024/01/05 11:18:15;;;;;;;14.40;13.90;;;9.40;99.90;;;;;;5035361;28;20467;-71
2024/01/05 11:21:02;;;;;;;14.80;14.30;;;9.40;99.90;;;;;;5036207;28;20898;-72
2024/01/05 11:23:30;;;;;;;14.10;13.60;;;9.40;99.90;;;;;;5032151;28;20488;-71
2024/01/05 11:25:57;;;;;;;14.43;13.93;;;9.40;99.90;;;;;;5032126;28;20465;-71
2024/01/05 11:28:35;;;;;;;14.77;14.27;;;9.30;99.90;;;;;;5036854;28;20463;-71
2024/01/05 11:31:05;;;;;;;14.70;14.20;;;9.20;99.90;;;;;;5033195;28;21069;-70
2024/01/05 11:33:44;;;;;;;14.33;13.83;;;9.20;99.90;;;;;;5032552;28;20472;-72
2024/01/05 11:36:12;;;;;;;14.50;14.00;;;9.30;99.90;;;;;;5033065;28;20779;-72
2024/01/05 11:38:44;;;;;;;14.30;13.80;;;9.30;99.90;;;;;;5031528;28;20475;-71
2024/01/05 11:41:18;;;;;;;14.33;13.83;;;9.40;99.90;;;;;;5031333;28;20810;-72
2024/01/05 11:43:45;;;;;;;14.13;13.63;;;9.20;99.90;;;;;;5035113;28;20468;-71
2024/01/05 11:46:13;;;;;;;14.17;13.67;;;9.20;99.90;;;;;;5036419;28;20504;-71
2024/01/05 11:48:47;;;;;;;14.30;13.80;;;9.00;99.90;;;;;;5035053;28;20602;-72
2024/01/05 11:51:14;;;;;;;14.80;14.30;;;9.00;99.90;;;;;;5033203;28;21250;-71
2024/01/05 11:53:44;;;;;;;15.53;14.93;;;9.00;99.90;;;;;;5034848;28;20989;-71
2024/01/05 11:56:17;;;;;;;14.83;14.33;;;8.90;99.90;;;;;;5034857;28;20472;-71
2024/01/05 11:58:46;;;;;;;14.50;14.00;;;8.90;99.90;;;;;;5034157;28;20557;-70
2024/01/05 12:01:16;;;;;;;14.17;13.67;;;8.90;99.90;;;;;;5036505;28;20464;-71
2024/01/05 12:03:43;;;;;;;13.90;13.40;;;8.90;99.90;;;;;;5025551;28;20645;-71
2024/01/05 12:06:11;;;;;;;14.03;13.53;;;9.20;99.90;;;;;;5032826;28;20952;-72
2024/01/05 12:08:39;;;;;;;14.20;13.70;;;9.40;99.90;;;;;;5031978;28;20464;-70
2024/01/05 12:11:08;;;;;;;13.53;13.13;;;9.40;99.90;;;;;;5034337;28;20500;-73
2024/01/05 12:13:36;;;;;;;14.13;13.63;;;9.40;99.90;;;;;;5034612;28;20501;-73
2024/01/05 12:16:04;;;;;;;13.93;13.43;;;9.40;99.90;;;;;;5032621;28;20526;-71
2024/01/05 12:18:33;;;;;;;13.60;13.20;;;9.30;99.90;;;;;;5027188;28;20591;-70
2024/01/05 12:21:01;;;;;;;13.63;13.23;;;9.30;99.90;;;;;;5034834;28;20556;-71
2024/01/05 12:23:30;;;;;;;13.50;13.10;;;9.30;99.90;;;;;;5030723;28;20493;-71
2024/01/05 12:26:00;;;;;;;13.77;13.37;;;9.30;99.90;;;;;;5033435;28;20564;-71
2024/01/05 12:28:30;;;;;;;13.47;13.07;;;9.30;99.90;;;;;;5033358;28;20831;-71
2024/01/05 12:30:58;;;;;;;13.40;13.00;;;8.90;99.90;;;;;;5033567;28;21111;-70
2024/01/05 12:33:26;;;;;;;13.67;13.27;;;8.80;99.90;;;;;;5030401;28;20484;-71
2024/01/05 12:35:55;;;;;;;12.83;12.43;;;8.60;99.90;;;;;;5027666;28;20885;-71
2024/01/05 12:38:24;;;;;;;12.90;12.50;;;8.50;99.90;;;;;;5033238;28;20461;-72
2024/01/05 12:40:51;;;;;;;13.43;12.93;;;8.40;99.90;;;;;;5035168;28;20539;-70